Terminal Aerodrome Forecast
Issued by NWS Paducah, KY

Home | Current Version | Previous Version | Text Only | Print | Product List | Glossary Off
Versions: 1 2 3 4 5 6 7 8 9 10 11 12 13 14 15 16 17

000
FTUS43 KPAH 092300
TAFPAH
TAF
KPAH 092330Z 1000/1024 32006KT P6SM SCT060
     FM100100 36002KT P6SM FEW070
     FM101400 04005KT P6SM FEW050=

USA.gov is the U.S. government's official web portal to all federal, state and local government web resources and services.